SBI7005 UNNT-UNEE
Flight info
| Callsign | SBI7005 |
|---|---|
| Flight time | 0h 39m |
| Altitude | 21000 |
| Route | OGATI1K OGATI OGATI4G |
| Aircraft | E170/M-SDE3GILORVW/S |
Departure
| Time | 2026-04-29 15:28 |
|---|---|
| Airport | Novosibirsk Tolmachevo Airport (UNNT) |
Arrival
| Time | 2026-04-29 16:07 |
|---|---|
| Airport | Alexei Leonov Kemerovo International Airport (UNEE) |
| Time | Latitude | Longitude | Altitude | Speed | Heading |
|---|---|---|---|---|---|
| 2026-04-29 14:59 | 55.00949 | 82.66549 | 354 ft | 0 kts | 172° |
| 2026-04-29 15:19 | 55.00948 | 82.66549 | 354 ft | 0 kts | 172° |
| 2026-04-29 15:19 | 55.00949 | 82.66549 | 354 ft | 0 kts | 173° |
| 2026-04-29 15:19 | 55.00962 | 82.66549 | 354 ft | 2 kts | 181° |
| 2026-04-29 15:20 | 55.00977 | 82.66550 | 354 ft | 2 kts | 181° |
| 2026-04-29 15:20 | 55.00992 | 82.66550 | 354 ft | 2 kts | 181° |
| 2026-04-29 15:20 | 55.01007 | 82.66550 | 354 ft | 2 kts | 181° |
| 2026-04-29 15:20 | 55.01022 | 82.66551 | 354 ft | 2 kts | 181° |
| 2026-04-29 15:21 | 55.01037 | 82.66552 | 354 ft | 2 kts | 181° |
| 2026-04-29 15:21 | 55.01053 | 82.66552 | 353 ft | 2 kts | 181° |
| 2026-04-29 15:21 | 55.01067 | 82.66553 | 353 ft | 2 kts | 181° |
| 2026-04-29 15:21 | 55.01082 | 82.66553 | 353 ft | 2 kts | 181° |
| 2026-04-29 15:22 | 55.01097 | 82.66554 | 352 ft | 2 kts | 181° |
| 2026-04-29 15:22 | 55.01112 | 82.66554 | 352 ft | 2 kts | 181° |
| 2026-04-29 15:22 | 55.01120 | 82.66554 | 352 ft | 0 kts | 176° |
| 2026-04-29 15:22 | 55.01124 | 82.66554 | 352 ft | 0 kts | 171° |
| 2026-04-29 15:24 | 55.01121 | 82.66554 | 352 ft | 2 kts | 171° |
| 2026-04-29 15:24 | 55.01089 | 82.66564 | 353 ft | 5 kts | 163° |
| 2026-04-29 15:24 | 55.01076 | 82.66615 | 353 ft | 5 kts | 69° |
| 2026-04-29 15:25 | 55.01114 | 82.66653 | 352 ft | 7 kts | 2° |
| 2026-04-29 15:25 | 55.01177 | 82.66641 | 351 ft | 10 kts | 352° |
| 2026-04-29 15:25 | 55.01250 | 82.66622 | 351 ft | 11 kts | 351° |
| 2026-04-29 15:25 | 55.01265 | 82.66618 | 351 ft | 0 kts | 351° |
| 2026-04-29 15:26 | 55.01296 | 82.66610 | 351 ft | 8 kts | 351° |
| 2026-04-29 15:26 | 55.01363 | 82.66568 | 351 ft | 11 kts | 301° |
| 2026-04-29 15:26 | 55.01373 | 82.66479 | 351 ft | 0 kts | 260° |
| 2026-04-29 15:26 | 55.01373 | 82.66478 | 351 ft | 0 kts | 260° |
| 2026-04-29 15:27 | 55.01372 | 82.66466 | 351 ft | 4 kts | 260° |
| 2026-04-29 15:27 | 55.01338 | 82.66096 | 351 ft | 66 kts | 261° |
| 2026-04-29 15:27 | 55.01232 | 82.64925 | 351 ft | 126 kts | 261° |
| 2026-04-29 15:27 | 55.01073 | 82.63195 | 537 ft | 152 kts | 259° |
| 2026-04-29 15:28 | 55.00897 | 82.61312 | 1011 ft | 163 kts | 258° |
| 2026-04-29 15:28 | 55.00775 | 82.60027 | 1424 ft | 164 kts | 257° |
| 2026-04-29 15:28 | 55.00538 | 82.57339 | 2126 ft | 184 kts | 262° |
| 2026-04-29 15:28 | 55.00916 | 82.55071 | 2551 ft | 215 kts | 308° |
| 2026-04-29 15:29 | 55.02202 | 82.53690 | 2930 ft | 224 kts | 349° |
| 2026-04-29 15:29 | 55.05343 | 82.53085 | 2998 ft | 228 kts | 352° |
| 2026-04-29 15:30 | 55.08468 | 82.52330 | 2995 ft | 228 kts | 351° |
| 2026-04-29 15:30 | 55.10033 | 82.51920 | 2994 ft | 228 kts | 351° |
| 2026-04-29 15:30 | 55.11594 | 82.52212 | 3006 ft | 227 kts | 31° |
| 2026-04-29 15:30 | 55.12645 | 82.54170 | 3030 ft | 225 kts | 72° |
| 2026-04-29 15:31 | 55.13030 | 82.56795 | 3017 ft | 224 kts | 81° |
| 2026-04-29 15:31 | 55.13341 | 82.59445 | 2995 ft | 223 kts | 81° |
| 2026-04-29 15:31 | 55.13636 | 82.62083 | 2992 ft | 222 kts | 82° |
| 2026-04-29 15:31 | 55.13923 | 82.64738 | 2992 ft | 222 kts | 82° |
| 2026-04-29 15:32 | 55.14085 | 82.67392 | 2986 ft | 220 kts | 104° |
| 2026-04-29 15:32 | 55.13332 | 82.69601 | 3061 ft | 215 kts | 148° |
| 2026-04-29 15:32 | 55.11908 | 82.70484 | 3523 ft | 226 kts | 169° |
| 2026-04-29 15:32 | 55.10367 | 82.71018 | 4256 ft | 226 kts | 171° |
| 2026-04-29 15:33 | 55.08833 | 82.71495 | 4893 ft | 226 kts | 172° |
| 2026-04-29 15:33 | 55.07298 | 82.71941 | 4961 ft | 224 kts | 172° |
| 2026-04-29 15:33 | 55.05757 | 82.72371 | 4985 ft | 224 kts | 173° |
| 2026-04-29 15:33 | 55.04232 | 82.72788 | 4990 ft | 224 kts | 173° |
| 2026-04-29 15:34 | 55.02689 | 82.73204 | 4993 ft | 224 kts | 173° |
| 2026-04-29 15:34 | 55.01148 | 82.73623 | 5056 ft | 232 kts | 172° |
| 2026-04-29 15:34 | 54.99517 | 82.74081 | 5587 ft | 241 kts | 172° |
| 2026-04-29 15:34 | 54.98451 | 82.74380 | 5913 ft | 232 kts | 172° |
| 2026-04-29 15:35 | 54.96352 | 82.74968 | 5979 ft | 229 kts | 172° |
| 2026-04-29 15:35 | 54.94787 | 82.75406 | 5993 ft | 229 kts | 172° |
| 2026-04-29 15:35 | 54.93206 | 82.75848 | 5995 ft | 228 kts | 172° |
| 2026-04-29 15:35 | 54.91668 | 82.76440 | 5988 ft | 230 kts | 153° |
| 2026-04-29 15:36 | 54.90570 | 82.78411 | 6052 ft | 234 kts | 111° |
| 2026-04-29 15:36 | 54.90459 | 82.81306 | 6500 ft | 249 kts | 80° |
| 2026-04-29 15:36 | 54.90770 | 82.84211 | 7293 ft | 248 kts | 79° |
| 2026-04-29 15:36 | 54.91090 | 82.87106 | 8147 ft | 245 kts | 78° |
| 2026-04-29 15:37 | 54.91414 | 82.89996 | 8923 ft | 244 kts | 77° |
| 2026-04-29 15:37 | 54.91739 | 82.92867 | 9625 ft | 247 kts | 77° |
| 2026-04-29 15:37 | 54.92075 | 82.95828 | 10327 ft | 252 kts | 77° |
| 2026-04-29 15:37 | 54.92415 | 82.98837 | 10922 ft | 261 kts | 77° |
| 2026-04-29 15:38 | 54.92770 | 83.01976 | 11406 ft | 275 kts | 77° |
| 2026-04-29 15:38 | 54.93080 | 83.05359 | 11856 ft | 292 kts | 88° |
| 2026-04-29 15:38 | 54.92997 | 83.08917 | 12332 ft | 306 kts | 92° |
| 2026-04-29 15:38 | 54.92877 | 83.12672 | 12959 ft | 314 kts | 92° |
| 2026-04-29 15:39 | 54.92753 | 83.16485 | 13720 ft | 318 kts | 92° |
| 2026-04-29 15:39 | 54.92629 | 83.20267 | 14505 ft | 320 kts | 92° |
| 2026-04-29 15:39 | 54.92501 | 83.24147 | 15291 ft | 322 kts | 92° |
| 2026-04-29 15:39 | 54.92373 | 83.28007 | 16012 ft | 325 kts | 92° |
| 2026-04-29 15:40 | 54.92240 | 83.31956 | 16705 ft | 329 kts | 92° |
| 2026-04-29 15:40 | 54.92087 | 83.35936 | 17349 ft | 333 kts | 93° |
| 2026-04-29 15:40 | 54.91915 | 83.39921 | 17978 ft | 337 kts | 93° |
| 2026-04-29 15:40 | 54.91737 | 83.44010 | 18610 ft | 341 kts | 93° |
| 2026-04-29 15:41 | 54.91557 | 83.48119 | 19228 ft | 344 kts | 93° |
| 2026-04-29 15:41 | 54.91375 | 83.52248 | 19862 ft | 347 kts | 93° |
| 2026-04-29 15:41 | 54.91191 | 83.56376 | 20466 ft | 350 kts | 93° |
| 2026-04-29 15:41 | 54.91001 | 83.60625 | 20953 ft | 352 kts | 93° |
| 2026-04-29 15:42 | 54.90807 | 83.64907 | 21012 ft | 367 kts | 93° |
| 2026-04-29 15:42 | 54.90601 | 83.69431 | 21029 ft | 387 kts | 94° |
| 2026-04-29 15:42 | 54.90382 | 83.74191 | 21031 ft | 402 kts | 94° |
| 2026-04-29 15:42 | 54.90158 | 83.79036 | 21016 ft | 406 kts | 94° |
| 2026-04-29 15:43 | 54.89928 | 83.83939 | 21013 ft | 404 kts | 94° |
| 2026-04-29 15:43 | 54.89702 | 83.88749 | 21011 ft | 404 kts | 94° |
| 2026-04-29 15:43 | 54.89471 | 83.93595 | 21012 ft | 403 kts | 94° |
| 2026-04-29 15:43 | 54.89238 | 83.98441 | 21012 ft | 404 kts | 94° |
| 2026-04-29 15:44 | 54.89003 | 84.03304 | 21010 ft | 404 kts | 94° |
| 2026-04-29 15:44 | 54.88768 | 84.08137 | 21013 ft | 404 kts | 94° |
| 2026-04-29 15:44 | 54.88530 | 84.12972 | 21013 ft | 404 kts | 94° |
| 2026-04-29 15:44 | 54.88291 | 84.17793 | 21013 ft | 404 kts | 94° |
| 2026-04-29 15:45 | 54.88046 | 84.22682 | 21012 ft | 404 kts | 94° |
| 2026-04-29 15:45 | 54.87802 | 84.27530 | 21014 ft | 404 kts | 94° |
| 2026-04-29 15:45 | 54.87558 | 84.32340 | 21015 ft | 403 kts | 94° |
| 2026-04-29 15:45 | 54.87310 | 84.37180 | 21337 ft | 404 kts | 94° |
| 2026-04-29 15:46 | 54.87061 | 84.42000 | 21359 ft | 405 kts | 94° |
| 2026-04-29 15:46 | 54.86808 | 84.46880 | 21370 ft | 405 kts | 94° |
| 2026-04-29 15:46 | 54.86554 | 84.51706 | 21372 ft | 403 kts | 94° |
| 2026-04-29 15:46 | 54.86299 | 84.56543 | 21370 ft | 403 kts | 94° |
| 2026-04-29 15:47 | 54.86046 | 84.61310 | 21360 ft | 393 kts | 94° |
| 2026-04-29 15:47 | 54.85908 | 84.65989 | 21355 ft | 389 kts | 82° |
| 2026-04-29 15:47 | 54.86620 | 84.70505 | 21404 ft | 387 kts | 67° |
| 2026-04-29 15:47 | 54.87601 | 84.74786 | 21318 ft | 389 kts | 66° |
| 2026-04-29 15:48 | 54.88614 | 84.79173 | 20904 ft | 387 kts | 66° |
| 2026-04-29 15:48 | 54.89598 | 84.83433 | 20490 ft | 384 kts | 66° |
| 2026-04-29 15:48 | 54.90579 | 84.87678 | 20075 ft | 380 kts | 66° |
| 2026-04-29 15:48 | 54.91560 | 84.91935 | 19656 ft | 378 kts | 66° |
| 2026-04-29 15:49 | 54.92534 | 84.96170 | 19242 ft | 375 kts | 66° |
| 2026-04-29 15:49 | 54.93490 | 85.00333 | 18833 ft | 372 kts | 66° |
| 2026-04-29 15:49 | 54.94437 | 85.04463 | 18427 ft | 370 kts | 66° |
| 2026-04-29 15:49 | 54.95076 | 85.07257 | 18158 ft | 368 kts | 66° |
| 2026-04-29 15:50 | 54.96314 | 85.12675 | 17631 ft | 365 kts | 66° |
| 2026-04-29 15:50 | 54.97247 | 85.16773 | 17235 ft | 362 kts | 66° |
| 2026-04-29 15:50 | 54.97857 | 85.19449 | 16972 ft | 361 kts | 66° |
| 2026-04-29 15:50 | 54.99079 | 85.24834 | 16444 ft | 358 kts | 66° |
| 2026-04-29 15:51 | 54.99992 | 85.28863 | 16042 ft | 356 kts | 66° |
| 2026-04-29 15:51 | 55.00884 | 85.32810 | 15656 ft | 353 kts | 66° |
| 2026-04-29 15:51 | 55.01783 | 85.36794 | 15263 ft | 351 kts | 66° |
| 2026-04-29 15:51 | 55.02663 | 85.40696 | 14877 ft | 349 kts | 66° |
| 2026-04-29 15:52 | 55.03537 | 85.44586 | 14502 ft | 346 kts | 66° |
| 2026-04-29 15:52 | 55.04420 | 85.48516 | 14106 ft | 345 kts | 66° |
| 2026-04-29 15:52 | 55.05275 | 85.52334 | 13737 ft | 342 kts | 66° |
| 2026-04-29 15:52 | 55.06135 | 85.56180 | 13357 ft | 339 kts | 66° |
| 2026-04-29 15:53 | 55.06985 | 85.59991 | 12994 ft | 337 kts | 66° |
| 2026-04-29 15:53 | 55.07829 | 85.63777 | 12616 ft | 335 kts | 66° |
| 2026-04-29 15:53 | 55.08666 | 85.67538 | 12250 ft | 332 kts | 67° |
| 2026-04-29 15:53 | 55.09483 | 85.71223 | 11869 ft | 322 kts | 67° |
| 2026-04-29 15:54 | 55.10274 | 85.74795 | 11524 ft | 309 kts | 67° |
| 2026-04-29 15:54 | 55.11033 | 85.78226 | 11174 ft | 297 kts | 67° |
| 2026-04-29 15:54 | 55.11759 | 85.81511 | 10864 ft | 286 kts | 66° |
| 2026-04-29 15:54 | 55.12463 | 85.84700 | 10553 ft | 277 kts | 66° |
| 2026-04-29 15:55 | 55.13139 | 85.87771 | 10225 ft | 267 kts | 66° |
| 2026-04-29 15:55 | 55.13793 | 85.90746 | 9971 ft | 258 kts | 66° |
| 2026-04-29 15:55 | 55.14419 | 85.93597 | 9694 ft | 251 kts | 66° |
| 2026-04-29 15:55 | 55.15036 | 85.96410 | 9405 ft | 244 kts | 66° |
| 2026-04-29 15:56 | 55.15629 | 85.99114 | 9139 ft | 238 kts | 66° |
| 2026-04-29 15:56 | 55.16225 | 86.01836 | 8892 ft | 237 kts | 67° |
| 2026-04-29 15:56 | 55.16810 | 86.04514 | 8645 ft | 239 kts | 67° |
| 2026-04-29 15:56 | 55.17203 | 86.06316 | 8473 ft | 239 kts | 67° |
| 2026-04-29 15:57 | 55.17989 | 86.09924 | 8141 ft | 239 kts | 67° |
| 2026-04-29 15:57 | 55.18579 | 86.12633 | 7851 ft | 237 kts | 67° |
| 2026-04-29 15:57 | 55.19159 | 86.15305 | 7596 ft | 237 kts | 67° |
| 2026-04-29 15:57 | 55.19743 | 86.17996 | 7337 ft | 237 kts | 67° |
| 2026-04-29 15:58 | 55.20188 | 86.19713 | 7158 ft | 234 kts | 54° |
| 2026-04-29 15:58 | 55.21487 | 86.22761 | 6844 ft | 233 kts | 50° |
| 2026-04-29 15:58 | 55.22466 | 86.24993 | 6546 ft | 232 kts | 50° |
| 2026-04-29 15:58 | 55.23437 | 86.27210 | 6307 ft | 231 kts | 50° |
| 2026-04-29 15:59 | 55.24412 | 86.29440 | 6058 ft | 231 kts | 51° |
| 2026-04-29 15:59 | 55.25389 | 86.31677 | 5815 ft | 230 kts | 51° |
| 2026-04-29 15:59 | 55.26350 | 86.33878 | 5578 ft | 230 kts | 51° |
| 2026-04-29 15:59 | 55.27326 | 86.36117 | 5298 ft | 229 kts | 51° |
| 2026-04-29 16:00 | 55.28291 | 86.38332 | 5026 ft | 229 kts | 51° |
| 2026-04-29 16:00 | 55.29274 | 86.40590 | 4507 ft | 236 kts | 52° |
| 2026-04-29 16:00 | 55.30266 | 86.42847 | 4180 ft | 232 kts | 46° |
| 2026-04-29 16:00 | 55.31618 | 86.44150 | 3926 ft | 223 kts | 3° |
| 2026-04-29 16:01 | 55.32625 | 86.43978 | 3757 ft | 222 kts | 337° |
| 2026-04-29 16:01 | 55.34384 | 86.42141 | 3346 ft | 221 kts | 324° |
| 2026-04-29 16:01 | 55.35627 | 86.40628 | 3109 ft | 216 kts | 322° |
| 2026-04-29 16:01 | 55.36816 | 86.39106 | 2841 ft | 209 kts | 315° |
| 2026-04-29 16:02 | 55.37431 | 86.36966 | 2600 ft | 193 kts | 268° |
| 2026-04-29 16:02 | 55.37049 | 86.34887 | 2572 ft | 176 kts | 237° |
| 2026-04-29 16:02 | 55.36415 | 86.33168 | 2575 ft | 160 kts | 235° |
| 2026-04-29 16:02 | 55.35797 | 86.31580 | 2528 ft | 155 kts | 233° |
| 2026-04-29 16:03 | 55.35383 | 86.30548 | 2537 ft | 156 kts | 233° |
| 2026-04-29 16:03 | 55.34539 | 86.28486 | 2553 ft | 158 kts | 232° |
| 2026-04-29 16:03 | 55.33888 | 86.26923 | 2557 ft | 157 kts | 232° |
| 2026-04-29 16:03 | 55.33263 | 86.25437 | 2618 ft | 149 kts | 232° |
| 2026-04-29 16:04 | 55.32657 | 86.24006 | 2427 ft | 147 kts | 232° |
| 2026-04-29 16:04 | 55.32046 | 86.22567 | 2230 ft | 145 kts | 232° |
| 2026-04-29 16:04 | 55.31453 | 86.21174 | 2039 ft | 139 kts | 231° |
| 2026-04-29 16:04 | 55.30897 | 86.19871 | 1809 ft | 126 kts | 231° |
| 2026-04-29 16:05 | 55.30385 | 86.18673 | 1640 ft | 123 kts | 231° |
| 2026-04-29 16:05 | 55.29866 | 86.17464 | 1515 ft | 125 kts | 231° |
| 2026-04-29 16:05 | 55.29342 | 86.16243 | 1374 ft | 127 kts | 231° |
| 2026-04-29 16:05 | 55.28799 | 86.15005 | 1215 ft | 128 kts | 231° |
| 2026-04-29 16:06 | 55.28263 | 86.13751 | 1018 ft | 129 kts | 232° |
| 2026-04-29 16:06 | 55.27731 | 86.12489 | 881 ft | 125 kts | 232° |
| 2026-04-29 16:06 | 55.27297 | 86.11466 | 878 ft | 79 kts | 233° |
| 2026-04-29 16:06 | 55.27031 | 86.10832 | 878 ft | 60 kts | 233° |
| 2026-04-29 16:07 | 55.26873 | 86.10454 | 878 ft | 56 kts | 233° |
| 2026-04-29 16:07 | 55.26682 | 86.09999 | 878 ft | 33 kts | 233° |
| 2026-04-29 16:07 | 55.26738 | 86.09871 | 878 ft | 17 kts | 19° |
| 2026-04-29 16:07 | 55.26876 | 86.09950 | 878 ft | 22 kts | 17° |
| 2026-04-29 16:08 | 55.27040 | 86.10040 | 878 ft | 26 kts | 17° |
| 2026-04-29 16:08 | 55.27221 | 86.10145 | 878 ft | 27 kts | 24° |
| 2026-04-29 16:08 | 55.27348 | 86.10379 | 878 ft | 27 kts | 55° |
| 2026-04-29 16:08 | 55.27464 | 86.10676 | 878 ft | 30 kts | 55° |
| 2026-04-29 16:09 | 55.27588 | 86.10989 | 878 ft | 32 kts | 55° |
| 2026-04-29 16:09 | 55.27713 | 86.11306 | 878 ft | 31 kts | 56° |
| 2026-04-29 16:09 | 55.27794 | 86.11509 | 878 ft | 30 kts | 55° |
| 2026-04-29 16:09 | 55.27866 | 86.11676 | 878 ft | 7 kts | 25° |
| 2026-04-29 16:10 | 55.27918 | 86.11649 | 878 ft | 8 kts | 322° |
| 2026-04-29 16:10 | 55.27963 | 86.11594 | 878 ft | 5 kts | 324° |
| 2026-04-29 16:10 | 55.27970 | 86.11584 | 878 ft | 1 kts | 325° |
| 2026-04-29 16:10 | 55.27974 | 86.11579 | 878 ft | 0 kts | 324° |